Date,TemperatureHighF,TemperatureAvgF,TemperatureLowF,DewpointHighF,DewpointAvgF,DewpointLowF,HumidityHigh,HumidityAvg,HumidityLow,PressureMaxIn,PressureMinIn,WindSpeedMaxMPH,WindSpeedAvgMPH,GustSpeedMaxMPH,PrecipitationSumIn
2013-1-1,48,44,39,43,37,26,99,79,48,30.47,30.30,6,2,9,0.20
2013-1-2,46,39,35,38,31,22,99,75,50,30.65,30.40,5,2,8,0.15
2013-1-3,45,33,24,29,19,8,99,59,28,30.68,30.59,6,2,8,0.00
2013-1-4,53,37,23,27,21,14,99,60,22,30.67,30.56,7,3,14,0.00
2013-1-5,55,38,24,28,19,6,89,52,14,30.81,30.63,6,2,8,0.00
2013-1-6,59,44,36,37,32,25,99,67,29,30.64,30.44,7,2,11,0.02
2013-1-7,56,40,28,31,27,23,94,63,28,30.87,30.57,10,2,17,0.00
2013-1-8,54,39,28,36,31,25,99,75,42,30.90,30.80,4,1,8,0.00
2013-1-9,70,53,35,51,42,30,96,68,40,30.83,30.69,8,2,14,0.00
2013-1-10,64,48,36,45,22,-13,85,43,10,31.00,30.79,7,2,11,0.00
2013-1-11,48,42,33,43,28,-7,97,68,10,30.92,30.52,6,1,10,0.06
2013-1-12,56,52,48,46,8,-6,72,22,10,30.60,30.51,5,2,10,0.00
2013-1-13,71,60,53,69,31,-2,99,52,10,30.55,30.44,7,3,11,0.01
2013-1-14,63,57,44,63,56,42,99,99,92,30.67,30.45,10,4,15,1.32
2013-1-15,44,41,40,43,40,34,99,94,79,30.73,30.51,10,4,15,1.00
2013-1-16,45,41,37,42,36,30,92,81,75,30.53,30.34,6,2,10,0.46
2013-1-17,46,41,32,40,30,19,89,66,45,30.54,30.40,12,3,17,0.92
2013-1-18,47,35,27,31,21,-11,99,61,10,30.95,30.50,6,1,11,0.61
2013-1-19,59,40,25,32,27,17,99,66,21,30.91,30.50,8,3,14,0.04
2013-1-20,64,48,35,30,26,16,72,46,16,30.50,30.32,13,5,24,0.00
2013-1-21,60,42,26,30,17,-12,97,46,10,30.52,30.22,11,3,16,0.00
2013-1-22,40,29,19,2,-10,-24,47,19,10,30.71,30.34,9,4,16,0.00
2013-1-23,40,26,11,6,-7,-21,69,28,10,30.78,30.52,8,2,15,0.00
2013-1-24,33,25,15,24,6,-18,97,51,13,30.97,30.42,16,6,25,0.00
2013-1-25,26,19,11,24,10,-9,99,73,22,30.97,30.51,6,2,11,0.00
2013-1-26,43,26,14,27,21,13,99,84,45,30.86,30.49,4,1,7,0.05
2013-1-27,46,33,22,30,21,12,99,68,26,31.04,30.85,6,2,8,0.02
2013-1-28,62,42,29,44,35,23,99,78,45,30.93,30.55,10,4,15,0.07
2013-1-29,81,59,43,54,48,41,99,70,34,30.58,30.45,7,3,11,0.00
2013-1-30,75,68,59,62,57,53,88,70,55,30.45,29.74,17,9,28,0.06
2013-1-31,70,48,30,63,26,3,99,48,13,30.38,29.67,16,8,106,0.57
2013-2-1,39,32,21,25,3,-17,80,35,10,30.82,30.22,14,5,25,0.00
2013-2-2,44,28,15,22,8,-11,89,50,10,30.82,30.43,9,2,14,0.00
2013-2-3,47,37,30,34,22,13,86,57,27,30.43,30.25,8,3,14,0.00
2013-2-4,44,34,21,22,14,5,80,47,20,30.56,30.36,7,2,11,0.00
2013-2-5,63,48,39,34,27,21,59,45,22,30.36,30.26,8,4,12,0.00
2013-2-6,63,46,31,35,28,9,97,56,13,30.76,30.35,9,3,16,0.00
2013-2-7,50,39,31,39,29,24,99,68,47,30.84,30.55,9,4,14,0.30
2013-2-8,54,43,38,45,35,21,99,76,47,30.55,30.17,10,5,16,0.90
2013-2-9,56,39,26,23,12,-8,75,38,10,30.76,30.35,10,4,16,0.00
2013-2-10,54,37,20,25,15,-3,91,49,10,30.53,30.26,7,2,11,0.00
2013-2-11,66,52,40,54,47,25,99,82,49,30.26,29.83,14,6,25,0.07
2013-2-12,67,53,37,46,26,5,76,40,10,30.04,29.84,10,3,14,0.00
2013-2-13,50,45,38,44,37,26,99,76,40,29.94,29.64,7,2,11,0.13
2013-2-14,58,41,29,36,30,25,96,71,30,30.06,29.80,6,2,11,0.01
2013-2-15,68,48,30,37,26,7,99,57,10,30.08,29.91,13,3,18,0.00
2013-2-16,43,36,30,36,32,17,99,89,59,30.02,29.84,10,4,14,0.18
2013-2-17,39,28,22,26,5,-17,94,44,10,30.25,29.86,10,4,17,0.01
2013-2-18,55,33,15,17,5,-13,78,39,10,30.42,30.23,7,2,11,0.01
2013-2-19,55,41,32,51,34,17,99,76,46,30.23,29.80,11,4,19,0.13
2013-2-20,53,39,26,33,11,-8,84,40,10,30.16,29.89,9,4,14,0.00
2013-2-21,52,35,20,20,10,-2,80,40,12,30.32,30.14,9,3,13,0.00
2013-2-22,41,36,32,34,21,11,88,57,38,30.39,30.21,8,3,10,0.05
2013-2-23,43,41,36,36,33,-12,99,74,63,30.20,29.82,6,2,8,0.19
2013-2-24,64,47,35,40,24,-12,81,46,10,30.11,29.82,13,4,23,0.02
2013-2-25,47,36,28,25,19,11,88,53,25,30.24,30.11,8,3,11,0.00
2013-2-26,52,41,27,49,36,24,99,85,35,30.22,29.57,19,5,27,0.57
2013-2-27,65,50,35,40,29,2,99,48,15,29.73,29.56,11,4,17,0.01
2013-2-28,52,44,37,40,28,-14,99,57,26,29.79,29.64,10,4,18,0.00
2013-3-1,48,40,31,32,25,20,84,56,38,29.91,29.78,8,3,12,0.00
2013-3-2,42,37,33,23,21,18,63,52,39,29.93,29.84,7,3,11,0.00
2013-3-3,50,37,24,25,16,7,87,47,18,29.94,29.80,10,3,15,0.00
2013-3-4,54,36,24,20,8,-8,62,36,10,30.07,29.94,11,4,18,0.00
2013-3-5,50,38,25,42,24,9,99,63,21,30.10,29.69,11,3,15,0.51
2013-3-6,48,36,30,41,33,29,99,89,71,29.98,29.42,21,9,30,1.30
2013-3-7,55,42,34,33,26,18,87,56,25,30.19,29.98,17,6,25,0.00
2013-3-8,53,41,31,29,24,16,83,53,28,30.26,30.13,17,7,27,0.00
2013-3-9,66,46,32,26,19,1,77,44,10,30.35,30.25,11,3,16,0.00
2013-3-10,68,57,44,34,15,3,92,46,10,30.35,30.23,7,2,14,0.00
2013-3-11,69,67,60,49,26,9,99,73,41,30.27,29.97,10,4,16,0.00
2013-3-12,76,62,56,58,52,45,99,72,38,29.98,29.72,12,6,21,0.78
2013-3-13,59,54,38,50,35,12,99,54,19,30.10,29.93,12,4,21,0.00
2013-3-14,56,41,27,20,10,-4,69,33,10,30.20,30.05,10,4,16,0.00
2013-3-15,64,52,44,39,20,-1,79,39,10,30.14,29.84,11,4,18,0.00
2013-3-16,77,60,51,59,45,37,99,69,32,29.88,29.58,14,3,20,0.30
2013-3-17,51,40,36,47,37,32,98,88,79,30.28,29.87,8,4,14,0.14
2013-3-18,39,36,34,33,24,15,87,63,42,30.28,29.88,8,4,14,0.46
2013-3-19,70,49,36,36,12,-5,44,26,10,29.99,29.76,11,4,22,0.01
2013-3-20,61,47,30,15,2,-12,48,17,10,30.08,29.79,11,4,17,0.00
2013-3-21,45,38,29,31,14,-9,99,44,12,29.94,29.70,12,6,21,0.00
2013-3-22,55,42,23,20,5,-7,62,26,10,30.04,29.92,10,4,18,0.00
2013-3-23,51,41,25,26,16,9,83,41,19,30.08,29.97,6,4,10,0.00
2013-3-24,41,35,32,35,29,22,99,78,54,29.99,29.63,9,3,11,0.08
2013-3-25,43,35,30,35,31,27,99,87,66,29.74,29.54,6,1,9,0.63
2013-3-26,51,40,29,33,26,17,99,62,27,30.05,29.74,10,3,16,0.01
2013-3-27,56,42,29,28,20,6,93,47,16,30.18,30.04,10,4,20,0.00
2013-3-28,57,43,31,25,19,8,73,42,15,30.27,30.15,13,5,22,0.00
2013-3-29,64,46,35,30,22,4,76,43,10,30.30,30.18,9,3,19,0.00
2013-3-30,70,50,32,36,22,5,92,43,10,30.25,30.11,8,2,13,0.00
2013-3-31,60,51,46,56,45,28,99,82,45,30.13,29.77,7,2,11,0.37
2013-4-1,75,59,45,53,34,-3,99,47,10,30.00,29.76,14,5,23,0.01
2013-4-2,61,53,40,27,14,-5,66,26,10,30.19,30.00,11,4,17,0.00
2013-4-3,64,45,27,26,7,-6,75,28,10,30.38,30.18,11,3,15,0.00
2013-4-4,52,42,32,41,15,-1,99,39,13,30.44,30.03,7,3,10,0.69
2013-4-5,70,50,37,42,30,11,99,57,11,30.06,29.87,11,4,16,0.28
2013-4-6,64,51,42,32,17,2,61,29,10,30.33,30.03,11,5,17,0.00
2013-4-7,76,55,31,40,32,22,84,48,14,30.32,30.06,12,4,18,0.00
2013-4-8,85,68,53,50,44,29,74,47,14,30.12,30.01,10,4,22,0.00
2013-4-9,91,75,60,53,47,30,72,43,13,30.14,30.01,9,4,16,0.00
2013-4-10,94,76,65,55,51,35,67,46,13,30.05,29.88,8,4,14,0.00
2013-4-11,88,75,64,57,54,46,69,50,23,29.94,29.78,12,5,18,0.00
2013-4-12,88,74,66,64,52,9,68,48,10,29.80,29.57,12,6,20,0.32
2013-4-13,78,64,47,52,34,15,77,39,10,29.97,29.70,10,4,17,0.00
2013-4-14,85,63,41,45,30,10,81,39,10,30.13,29.97,8,3,11,0.00
2013-4-15,68,59,52,53,38,-2,76,48,10,30.28,30.10,10,3,28,0.13
2013-4-16,81,66,55,58,45,10,72,48,16,30.32,30.19,7,2,11,0.00
2013-4-17,87,72,59,61,46,3,69,43,10,30.22,30.12,7,4,10,0.00
2013-4-18,84,71,63,58,48,22,70,46,21,30.22,30.05,10,4,16,0.00
2013-4-19,84,71,64,66,49,7,71,48,10,30.06,29.69,13,7,24,0.00
2013-4-20,69,56,42,40,25,2,87,36,10,30.30,29.76,7,3,13,0.00
2013-4-21,61,50,42,41,27,17,90,42,20,30.57,30.30,12,5,17,0.00
2013-4-22,61,48,34,41,36,30,99,68,38,30.55,30.35,9,5,15,0.00
2013-4-23,70,53,45,45,42,39,81,68,34,30.35,30.14,8,4,13,0.00
2013-4-24,82,62,44,53,44,11,99,57,17,30.15,29.92,13,5,24,0.00
2013-4-25,75,60,48,53,33,11,78,42,10,30.30,29.97,11,4,15,0.00
2013-4-26,78,56,38,42,33,14,89,51,10,30.47,30.29,8,2,10,0.00
2013-4-27,77,61,47,44,36,19,80,47,13,30.43,30.29,7,2,10,0.00
2013-4-28,68,57,48,51,41,27,80,59,24,30.32,30.14,4,1,8,0.00
2013-4-29,73,61,55,64,52,6,99,79,10,30.15,30.01,3,1,6,0.35
2013-4-30,68,62,58,58,53,46,99,73,10,30.25,30.06,7,4,12,0.00
2013-5-1,70,63,60,58,50,35,86,59,33,30.39,30.24,9,4,15,0.00
2013-5-2,75,60,50,53,49,42,91,69,36,30.42,30.31,7,3,13,0.00
2013-5-3,73,57,43,50,43,26,94,65,18,30.35,30.28,9,3,17,0.00
2013-5-4,68,54,47,50,45,40,89,71,42,30.30,30.16,8,4,14,0.00
2013-5-5,64,55,46,51,46,40,89,72,55,30.19,30.11,8,4,11,0.00
2013-5-6,72,61,55,59,53,46,86,74,53,30.13,29.94,11,4,17,0.00
2013-5-7,81,66,59,57,37,5,87,41,10,29.98,29.86,8,3,12,0.89
2013-5-8,71,61,53,58,49,40,85,66,47,30.02,29.94,6,1,11,0.25
2013-5-9,86,65,53,61,39,-2,88,43,10,30.05,29.97,6,2,9,0.00
2013-5-10,92,73,57,64,52,5,85,50,10,30.06,29.93,8,2,14,0.00
2013-5-11,75,75,75,63,63,63,66,66,66,29.95,29.77,3,3,4,0.00
2013-5-12,75,44,0,63,63,63,66,39,66,29.86,29.77,3,2,4,0.00
2013-5-13,0,0,0,63,63,63,0,0,100,29.85,29.85,0,0,0,0.00
2013-5-14,0,0,0,63,63,63,0,0,100,29.85,29.85,0,0,0,0.00
2013-5-29,65,53,45,49,35,13,99,55,16,29.38,29.13,15,4,15,0.09
2013-5-30,77,51,39,58,44,37,99,82,33,29.58,28.99,11,4,11,0.27
2013-5-31,41,36,34,36,30,23,89,78,59,29.69,29.55,9,4,9,0.33
2013-6-1,62,39,35,34,18,5,58,42,19,29.56,29.21,6,2,6,0.21
2013-6-2,70,50,30,31,2,-11,48,16,10,29.48,29.17,17,5,17,0.00
2013-6-3,61,44,31,31,14,-3,99,39,10,29.37,29.12,16,6,16,0.00
2013-6-4,89,72,29,56,39,-4,88,37,11,29.56,29.16,12,2,12,0.00
2013-6-5,87,71,56,59,51,41,97,57,23,29.59,29.48,4,2,7,0.00
2013-6-6,80,71,59,67,60,50,85,69,52,29.50,29.25,6,2,11,0.00
2013-6-7,77,72,70,68,60,53,85,65,47,29.25,28.94,8,2,12,2.20
2013-6-8,90,74,67,69,59,52,92,60,37,29.51,29.19,4,1,7,0.34
2013-6-9,91,77,63,73,65,56,91,70,47,29.59,29.47,4,2,12,0.00
2013-6-10,87,76,72,80,61,13,99,69,10,29.51,29.26,8,3,12,0.50
2013-6-11,90,78,69,69,39,12,92,34,10,29.32,29.24,7,3,14,0.00
2013-6-12,97,80,65,77,68,59,99,73,30,29.34,29.23,5,2,9,0.00
2013-6-13,97,80,69,77,61,10,99,63,10,29.25,28.94,19,4,37,0.25
2013-6-14,86,70,60,64,50,6,99,57,10,29.41,29.06,9,3,17,0.00
2013-6-15,92,73,57,65,56,41,99,65,17,29.51,29.41,5,1,10,0.00
2013-6-16,93,78,64,70,65,60,99,68,34,29.47,29.35,8,3,20,0.00
2013-6-17,91,78,70,77,71,65,99,81,52,29.44,29.31,6,2,9,0.19
2013-6-18,76,76,76,76,76,76,99,99,99,29.37,29.28,1,1,3,0.19
2013-6-19,76,76,76,76,76,76,99,99,99,29.29,29.29,1,1,3,0.19
2013-7-22,63,49,25,37,23,3,78,41,12,29.74,29.41,15,4,15,0.00
2013-7-23,77,55,41,58,46,36,99,78,33,29.60,29.18,11,3,11,0.30
2013-7-24,41,38,34,38,34,26,96,86,73,29.88,29.61,8,4,8,0.30
2013-7-25,39,36,34,26,20,12,72,53,38,29.88,29.41,9,3,9,0.31
2013-7-26,70,50,34,34,7,-11,40,20,10,29.62,29.36,14,5,14,0.01
2013-7-27,61,46,30,24,7,-7,58,24,10,29.67,29.31,17,5,17,0.00
2013-7-28,74,60,29,66,45,-4,99,63,15,29.57,29.35,12,7,14,0.00
2013-7-29,91,76,67,68,56,37,99,55,30,29.78,29.60,9,1,9,0.01
2013-7-30,92,75,62,69,60,50,99,65,26,29.84,29.75,4,1,6,0.00
2013-7-31,85,71,64,72,65,56,99,82,55,30.06,29.66,5,1,9,0.54
2013-8-1,90,74,68,78,65,46,99,76,47,30.04,29.83,7,2,12,0.92
2013-8-2,95,76,65,74,65,53,99,72,38,30.01,29.89,5,1,9,0.01
2013-8-3,92,77,67,75,70,62,99,82,42,30.00,29.92,5,1,7,0.00
2013-8-4,90,77,68,70,61,44,99,70,24,30.06,29.92,8,2,12,0.00
2013-8-5,88,78,66,68,62,46,99,74,24,30.12,30.04,3,1,5,0.00
2013-8-6,80,70,65,75,69,65,99,97,81,30.08,30.00,4,1,8,2.24
2013-8-7,92,78,70,77,71,64,99,82,40,30.10,30.03,6,2,10,0.00
2013-8-8,94,81,73,80,75,67,99,84,43,30.08,30.00,6,2,10,0.00
2013-8-9,95,83,74,82,78,74,99,85,53,30.02,29.92,9,3,13,0.00
2013-8-10,91,79,72,80,76,72,99,91,59,30.11,29.99,9,2,15,0.00
2013-8-11,89,77,70,83,75,69,99,95,70,30.13,30.02,4,1,6,0.11
2013-8-12,99,81,73,84,74,64,99,84,35,30.05,29.94,4,1,6,0.00
2013-8-13,92,79,73,82,76,72,99,92,54,29.95,29.77,5,2,9,0.00
2013-8-14,81,70,56,76,58,45,99,71,33,30.13,29.82,8,3,11,0.00
2013-8-15,84,66,55,67,59,49,99,82,31,30.19,30.11,3,1,7,0.00
2013-8-16,81,66,54,68,59,50,99,82,36,30.22,30.13,4,1,7,0.00
2013-8-17,80,69,60,71,66,59,99,89,66,30.24,30.18,5,2,8,0.22
2013-8-18,68,67,65,68,66,64,99,99,93,30.23,30.15,4,2,9,0.32
2013-8-19,75,68,64,75,68,63,99,99,99,30.22,30.10,4,1,7,0.12
2013-8-20,91,76,67,83,72,66,99,91,54,30.20,30.11,3,1,6,0.00
2013-8-21,94,77,67,84,74,66,99,92,54,30.24,30.10,4,1,6,0.00
2013-8-22,97,80,71,80,72,58,99,83,30,30.13,29.98,5,1,9,0.00
2013-8-23,82,71,62,78,70,62,99,98,80,30.14,29.95,6,1,10,0.30
2013-8-24,88,71,60,76,65,56,99,85,37,30.34,30.13,5,1,10,0.01
2013-8-25,88,74,57,70,64,47,99,79,27,30.43,30.30,4,1,8,0.00
2013-8-26,93,70,53,71,59,51,99,77,26,30.35,30.08,5,1,7,0.00
2013-8-27,96,76,63,81,69,63,99,84,38,30.09,29.93,4,1,7,0.01
2013-8-28,83,76,72,81,75,71,99,98,83,29.97,29.45,4,1,8,0.28
2013-8-29,89,78,68,85,76,68,99,95,67,29.64,29.43,5,2,9,0.07
2013-8-30,96,76,64,77,68,59,99,83,32,29.68,29.54,4,1,6,0.00
2013-8-31,93,80,68,79,74,68,99,84,53,29.57,29.44,10,2,10,0.00
2013-9-1,100,79,68,82,72,68,99,83,38,29.49,29.38,10,2,21,0.01
2013-9-2,97,79,71,83,74,66,99,87,38,29.47,29.38,4,2,7,0.00
2013-9-3,94,78,70,80,72,63,99,85,36,29.56,29.38,6,1,9,0.00
2013-9-4,89,76,64,71,64,54,99,73,34,29.71,29.55,6,2,7,0.00
2013-9-5,97,80,67,72,64,39,99,75,14,29.72,29.62,4,1,7,0.00
2013-9-6,87,70,60,68,60,51,99,74,31,29.83,29.71,7,2,9,0.00
2013-9-7,88,69,55,72,62,52,99,81,39,29.76,29.57,5,1,8,0.00
2013-9-8,96,78,70,77,69,58,99,79,30,29.62,29.50,4,1,6,0.00
2013-9-9,85,76,69,76,70,62,99,84,60,29.79,29.62,5,2,8,0.00
2013-9-10,96,79,68,80,72,67,99,83,44,29.82,29.73,9,2,9,0.00
2013-9-11,97,77,69,76,72,66,99,87,38,29.79,29.66,6,1,6,0.00
2013-9-12,97,79,68,80,71,68,99,81,42,29.67,29.38,6,2,11,0.00
2013-9-13,87,73,63,71,61,46,99,72,25,29.53,29.33,7,2,12,0.00
2013-9-14,80,66,50,56,50,37,99,65,23,29.79,29.53,8,3,15,0.00
2013-9-15,86,62,45,62,50,40,99,74,20,29.88,29.74,5,1,8,0.00
2013-9-16,85,66,56,68,61,56,99,87,52,29.83,29.69,7,2,11,0.00
2013-9-17,77,61,48,57,52,38,99,77,25,30.00,29.83,7,2,11,0.00
2013-9-18,81,59,44,56,48,28,99,76,17,29.95,29.80,4,1,8,0.00
2013-9-19,85,64,49,65,55,44,99,78,28,29.82,29.71,4,1,8,0.00
2013-9-20,85,68,56,67,60,55,99,81,38,29.72,29.58,4,1,8,0.00
2013-9-21,76,66,58,71,63,55,99,91,59,29.60,29.33,7,2,16,0.50
2013-9-22,81,66,56,66,56,43,99,75,35,29.54,29.34,7,2,11,0.04
2013-9-23,77,60,49,57,50,42,99,76,31,29.71,29.54,6,2,10,0.00
2013-9-24,82,62,46,60,51,40,99,77,28,29.72,29.56,5,1,10,0.00
2013-9-25,83,70,64,66,58,42,99,80,25,29.59,29.49,4,1,8,0.00
2013-9-26,86,68,53,66,58,41,99,75,26,29.68,29.51,6,2,9,0.00
2013-9-27,80,61,51,59,54,48,99,82,39,29.83,29.67,6,1,9,0.00
2013-9-28,75,61,50,60,54,39,99,80,43,29.90,29.80,6,2,11,0.00
2013-9-29,79,63,51,63,55,42,99,80,42,29.81,29.66,6,2,9,0.00
2013-9-30,86,69,62,63,57,40,99,76,21,29.72,29.60,4,1,7,0.00
2013-10-1,90,72,60,67,59,41,99,77,26,29.71,29.61,4,1,7,0.00
2013-10-2,94,70,58,67,58,44,99,73,20,29.73,29.64,4,1,6,0.00
2013-10-3,93,70,56,70,60,48,99,76,24,29.74,29.66,4,1,7,0.00
2013-10-4,97,73,62,71,63,52,99,77,24,29.72,29.64,5,1,8,0.00
2013-10-5,98,75,62,73,62,49,99,73,21,29.72,29.62,4,1,7,0.00
2013-10-6,91,75,63,71,62,38,99,71,28,29.68,29.55,7,2,14,0.00
2013-10-7,74,72,71,72,70,67,99,92,82,29.57,29.47,7,3,12,0.00
2013-10-19,64,58,49,64,57,48,99,99,99,29.63,29.43,4,1,4,0.04
2013-10-20,72,54,43,58,41,14,99,72,11,29.72,29.49,6,2,6,0.01
2013-10-25,33,32,32,32,32,32,99,99,99,29.95,29.94,0,0,2,0.00
2013-10-26,50,41,32,38,36,32,99,74,54,29.95,29.61,6,2,8,0.00
2013-10-27,50,50,50,34,34,34,99,35,17,29.72,29.61,6,4,8,0.00
2013-10-28,53,52,50,53,46,34,99,92,17,29.89,29.67,6,1,8,0.00
2013-10-29,76,58,48,53,47,34,99,75,22,29.98,29.87,5,1,8,0.00
2013-10-30,67,56,47,59,52,44,99,87,51,29.93,29.77,4,1,6,0.02
2013-10-31,74,64,52,63,53,26,99,72,23,29.80,29.48,7,2,12,0.00
2013-11-1,75,69,65,66,62,57,94,79,54,29.48,29.25,11,5,24,0.00
2013-11-2,79,64,52,64,44,8,99,59,10,29.52,29.26,7,2,15,0.00
2013-11-3,65,48,36,46,32,4,99,66,10,30.00,29.52,12,3,20,0.00
2013-11-4,53,41,34,34,28,14,97,65,22,30.22,30.00,8,3,13,0.00
2013-11-5,61,48,37,50,41,32,96,77,51,30.20,30.06,6,2,8,0.00
2013-11-6,75,58,44,57,49,27,99,78,22,30.07,29.72,6,1,8,0.00
2013-11-7,69,60,44,60,50,28,99,74,33,29.72,29.48,8,3,14,0.04
2013-11-8,62,44,29,36,22,1,99,56,10,29.94,29.68,8,2,13,0.00
2013-11-9,63,43,27,38,24,3,99,60,10,29.99,29.71,9,2,13,0.00
2013-11-10,75,55,41,32,21,4,64,34,10,29.87,29.58,18,4,24,0.00
2013-11-11,64,46,30,36,25,5,99,51,10,29.96,29.70,7,2,10,0.00
2013-11-12,52,43,32,42,22,2,87,45,22,30.02,29.59,16,6,24,0.00
2013-11-13,32,27,23,20,16,10,81,47,10,30.12,30.02,10,3,16,0.00
2013-11-14,67,42,25,23,13,-5,81,41,10,30.04,29.90,7,3,12,0.00
2013-11-15,63,48,31,49,24,1,96,48,10,29.92,29.83,6,2,14,0.01
2013-11-16,62,55,50,58,53,48,99,94,65,29.91,29.84,4,1,5,0.14
2013-11-17,74,61,49,63,52,8,99,76,10,29.85,29.43,7,2,13,0.01
2013-11-18,77,65,51,67,33,7,99,42,10,29.54,29.36,10,4,19,0.04
2013-11-19,57,47,37,25,19,11,61,35,17,29.97,29.54,13,5,19,0.00
2013-11-20,54,43,35,35,27,22,84,56,30,30.12,29.96,9,4,13,0.00
2013-11-21,64,48,40,46,39,34,95,73,40,30.14,30.00,6,2,8,0.00
2013-11-22,76,60,46,60,48,40,97,67,33,30.00,29.62,10,4,17,0.00
2013-11-23,62,53,41,59,27,-7,93,42,10,29.76,29.61,11,5,18,0.00
2013-11-24,41,31,20,11,-7,-21,52,20,10,30.15,29.76,12,6,22,0.00
2013-11-25,44,28,15,14,3,-13,77,40,10,30.22,29.99,6,2,11,0.00
2013-11-26,62,41,32,62,32,-3,99,75,20,30.02,29.17,13,4,21,0.98
2013-11-27,46,39,32,45,35,13,99,87,40,29.70,29.12,9,4,14,0.79
2013-11-28,50,32,22,25,14,-8,96,56,10,30.09,29.70,7,2,14,0.00
2013-11-29,53,33,21,32,19,7,99,64,18,30.29,30.06,9,2,14,0.00
2013-11-30,44,30,24,25,22,19,96,76,40,30.30,30.25,7,3,9,0.00
2013-12-1,63,43,22,37,24,5,99,58,11,29.98,29.63,4,1,8,0.00
2013-12-2,65,42,26,41,26,9,99,65,11,29.62,29.45,5,1,7,0.00
2013-12-3,65,45,32,40,34,18,99,71,21,29.62,29.47,7,1,10,0.00
2013-12-4,58,52,46,50,42,34,99,70,44,29.71,29.61,4,1,6,0.09
2013-12-5,64,60,54,64,51,33,99,72,40,29.72,29.60,6,3,11,0.09
2013-12-6,77,61,44,65,54,44,99,80,35,29.72,29.54,10,5,16,0.00
2013-12-7,46,40,34,44,33,25,99,77,47,30.13,29.68,11,5,17,0.38
2013-12-8,35,33,31,32,29,20,99,87,57,30.17,29.90,8,2,13,0.47
2013-12-9,41,36,32,32,16,-10,99,55,11,29.90,29.66,4,0,8,0.19
2013-12-10,40,36,28,12,-4,-15,50,21,10,29.88,29.57,6,2,11,0.21
2013-12-11,53,34,23,28,12,-16,98,52,10,30.03,29.85,6,1,11,0.01
2013-12-12,47,32,21,25,16,-6,93,59,11,30.03,29.86,9,2,15,0.00
2013-12-13,54,35,21,24,10,-8,95,44,10,29.95,29.85,7,3,11,0.00
2013-12-14,46,39,33,43,32,20,99,80,36,29.92,29.34,7,2,8,0.98
2013-12-15,60,44,32,34,17,-9,90,43,10,29.61,29.27,9,4,16,0.00
2013-12-16,53,39,30,30,24,13,80,58,22,29.77,29.60,6,2,8,0.00
2013-12-17,60,42,30,41,28,-6,99,69,10,29.73,29.51,8,2,14,0.37
2013-12-18,51,37,27,38,16,-14,96,56,10,29.85,29.57,8,2,14,0.01
2013-12-19,68,46,27,24,15,-4,88,37,10,29.85,29.76,10,4,17,0.00
2013-12-20,69,54,41,46,35,16,65,49,26,29.81,29.67,12,4,18,0.00
2013-12-21,74,62,52,45,34,6,56,37,10,29.72,29.60,10,4,17,0.00
2013-12-22,77,67,61,47,16,5,57,16,10,29.70,29.53,14,6,23,0.86
2013-12-23,67,59,43,64,38,6,99,55,10,29.80,29.57,10,4,22,0.56
2013-12-24,49,39,28,32,18,-2,67,44,21,30.07,29.79,13,6,20,0.00
2013-12-25,31,25,19,18,6,-1,88,42,10,30.19,30.02,8,2,14,0.00
2013-12-26,56,33,18,25,16,-5,99,63,10,30.02,29.84,9,2,14,0.00
2013-12-27,59,36,22,31,16,-4,99,58,10,30.08,29.97,5,2,9,0.00
2013-12-28,66,44,27,28,17,-4,84,43,10,30.00,29.78,8,2,17,0.00
2013-12-29,57,47,42,57,40,0,99,82,10,29.79,29.23,8,3,14,1.12
2013-12-30,60,45,38,44,32,14,99,67,17,29.77,29.48,7,3,11,0.00
2013-12-31,39,32,28,28,26,19,90,52,10,29.95,29.75,10,3,16,0.00
2014-1-1,53,37,24,32,22,15,99,68,25,30.03,29.75,8,2,12,0.00
2014-1-2,47,40,35,40,28,22,99,85,43,29.76,29.17,6,1,13,0.33